ナンディ の空港の天気 - METARとTAF

ナンディ国際空港 ( NFFN / NAN ) - フィジー ナンディ (ビティレブ島)
飛行場実況気象(Metar)
観測時間05/28 21:00 FJT (05/28 09:00 UTC)
風向・風速静穏 0m/s
視程10km以上
天気現象弱いしゅう雨
少しの雲 雲底高度 550m
全天の4割程度の雲 雲底高度 790m
全天を覆う雲 雲底高度 3050m
気温25℃
湿度94%
気圧1013hPa
METARNFFN 280900Z 00000KT 9999 -SHRA FEW018CB SCT026TCU OVC100 25/24 Q1013 TEMPO 3000 TSRA
過去の天気等 Google飛行場航空写真 Wunderground天気予報

過去48時間のMETAR

飛行場予報(TAF)
発表時間: 5/28 17:13 FJT (5/28 05:13 UTC)
予報対象時間: 28日18時 FJT ~ 29日18時 FJT
風向・風速不定 2m/s
視程10km以上
全天の4割程度の雲 雲底高度 1400m
28日18時 FJT ~ 29日5時 FJT に 確率 40% で一時的に
視程3000m
天気現象雷雨
全天の8割程度の雲 雲底高度 460m
少しの積乱雲 雲底高度 550m
TAF NFFN 280513Z 2806/2906 VRB03KT 9999 SCT046
PROB40 TEMPO 2806/2817 3000 TSRA BKN015 FEW018CB